Welcome to our new website - Welkom op onze vernieuwde website - Bienvenue sur notre nouveau site web - Willkommen auf unserer neuen Website
Check our progress frequently. Prüfen Sie unsere Fortschritte regelmäßig. Consultez notre progression fréquemment. Komt u straks nog eens terug

Bezoek ook deze websites:

Template documentation
and downloads

And another site



Het weer levert geen direct gevaar op.    Er zijn geen waarschuwingen afgegeven.

METAR rapporten vliegvelden

   
EHDL - Deelen Rnlafb, Netherlands
Afstand tot: ZW 55 km
Gewijzigd: 05-06-2020 23:25
Bewolking  
Bewolking  
   Wind: ZW 9.3 km/h
Wind: ZW 9.3 km/h
Temperatuur: 7°C
Voelt als: 5°C
Dauwpunt: 6°C
Vochtigheid: 93%
Barometer: 996 hPa
Bewolking: Bewolking
Zicht: meer dan 10 km
Bewolking: Grotendeels bewolkt 7000 ft,
Bewolking 17000 ft
EHDL 052125Z AUTO 22005KT 160V260 9999 BKN070 OVC170 07/06 Q0996 BLU
EHLE - Lelystad, Netherlands
Afstand tot: W 64 km
Gewijzigd: 05-06-2020 23:25
Bewolking  
Bewolking  
   Wind: WZW 9.3 km/h
Wind: WZW 9.3 km/h
Temperatuur: 9°C
Voelt als: 8°C
Dauwpunt: 6°C
Vochtigheid: 82%
Barometer: 995 hPa
Bewolking: Bewolking
Zicht: meer dan 10 km
Bewolking: Licht bewolkt 1500 ft,
Grotendeels bewolkt 2600 ft,
Bewolking 2900 ft
EHLE 052125Z AUTO 24005KT 210V280 9999 FEW015CB BKN026 OVC029 09/06 Q0995
ETWM - Meppen, Germany
Afstand tot: ONO 69 km
Gewijzigd: 05-06-2020 23:20
  
  
   Wind: ZW 13 km/h
Wind: ZW 13 km/h
Temperatuur: 8°C
Voelt als: 6°C
Dauwpunt: 6°C
Vochtigheid: 87%
Barometer: 994 hPa
ETWM 052120Z AUTO 23007KT //// // ////// 08/06 Q0994 ///
EHGG - Groningen/Eelde, Netherlands
Afstand tot: N 79 km
Gewijzigd: 05-06-2020 23:25
Gedeeltelijk bewolkt  
Gedeeltelijk bewolkt  
   Wind: ZW 13 km/h
Wind: ZW 13 km/h
Temperatuur: 6°C
Voelt als: 3°C
Dauwpunt: 5°C
Vochtigheid: 93%
Barometer: 993 hPa
Bewolking: Gedeeltelijk bewolkt
Zicht: meer dan 10 km
Bewolking: Gedeeltelijk bewolkt
EHGG 052125Z AUTO 22007KT 9999 NSC 06/05 Q0993
EDDG - Muenster/Osnabru, Germany
Afstand tot: OZO 90 km
Gewijzigd: 05-06-2020 23:20
Gedeeltelijk bewolkt  
Gedeeltelijk bewolkt  
   Wind: ZZW 9.3 km/h
Wind: ZZW 9.3 km/h
Temperatuur: 8°C
Voelt als: 7°C
Dauwpunt: 6°C
Vochtigheid: 87%
Barometer: 996 hPa
Bewolking: Gedeeltelijk bewolkt
Zicht: meer dan 10 km
Bewolking: Gedeeltelijk bewolkt 3000 ft
EDDG 052120Z 20005KT 160V220 9999 SCT030 08/06 Q0996 NOSIG
EDLV - Niederrhein, Germany
Afstand tot: ZZW 92 km
Gewijzigd: 05-06-2020 18:20
Verouderd
Gedeeltelijk bewolkt  
Gedeeltelijk bewolkt  
   Wind: Westen 24.1 km/h
Wind: Westen 24.1 km/h
Temperatuur: 12°C
Dauwpunt: 8°C
Vochtigheid: 77%
Barometer: 993 hPa
Bewolking: Gedeeltelijk bewolkt
Zicht: meer dan 10 km
Bewolking: Gedeeltelijk bewolkt 2000 ft
EDLV 051620Z 28013KT 9999 SCT020 12/08 Q0993

Script ontwikkeld door  Saratoga-weather.org Aangepast voor de template door  Weerstation Leuven

U vindt ons ook hier:

Het Weer Aktueel

European Weather Network

Weather Underground

Benelux Weer Netwerk

Apparatuur in gebruik:

Weerstation
Davis VP2

Weerprogramma
Meteobridge

Weercomputer
Meteobridge Pro+

Webleverancier
vip.nl

Davis VP2

Meteobridge

Meteobridge Pro+

vip.nl